EGUB - Benson
Distance from station: E 5mi, 14km
Updated: 12/10/2017 10:50pm
Light rain, Snow, Overcast
Light rain, Snow, Overcast
 Wind from NNE
Wind: NNE 16 mph , 26 km/h
Temperature: 34°F , 1°C
Wind Chill: 24°F , -4°C
Dew Point: 34°F , 1°C
Humidity: 100%
Barometer: 28.94 inHg , 980 hPa
Summary: Light rain, Snow
Clouds: Overcast
Visibility: 4 miles , 7 km
Cloud details: Overcast 700 ft
2017/12/11 06:50 EGUB 110650Z 02014KT 7000 -RASN OVC007 01/01 Q0980 GRN TEMPO 3000 BKN004 YLO2